sensor_id;sensor_type;location;lat;lon;timestamp;noise_LAeq;noise_LA_min;noise_LA_max;noise_LA01;noise_LA95
45651;Laerm;31365;48.858;8.530;2024-03-02T00:01:56;53.98;33.44;73.81;;
45651;Laerm;31365;48.858;8.530;2024-03-02T00:04:25;56.43;32.35;77.69;;
45651;Laerm;31365;48.858;8.530;2024-03-02T00:06:53;51.61;34.31;73.12;;
45651;Laerm;31365;48.858;8.530;2024-03-02T00:09:23;54.80;33.44;76.21;;
45651;Laerm;31365;48.858;8.530;2024-03-02T00:11:52;55.89;33.97;78.85;;
45651;Laerm;31365;48.858;8.530;2024-03-02T00:14:21;51.66;35.66;69.75;;
45651;Laerm;31365;48.858;8.530;2024-03-02T00:16:51;52.30;32.35;73.85;;
45651;Laerm;31365;48.858;8.530;2024-03-02T00:19:22;51.57;32.35;70.08;;
45651;Laerm;31365;48.858;8.530;2024-03-02T00:21:50;57.00;35.36;75.60;;
45651;Laerm;31365;48.858;8.530;2024-03-02T00:24:26;39.05;31.68;42.93;;
45651;Laerm;31365;48.858;8.530;2024-03-02T00:26:57;38.44;31.68;41.22;;
45651;Laerm;31365;48.858;8.530;2024-03-02T00:29:26;38.38;32.93;42.22;;
45651;Laerm;31365;48.858;8.530;2024-03-02T00:31:57;39.02;31.68;45.11;;
45651;Laerm;31365;48.858;8.530;2024-03-02T00:34:27;39.21;33.44;44.03;;
45651;Laerm;31365;48.858;8.530;2024-03-02T00:36:58;53.75;34.31;73.61;;
45651;Laerm;31365;48.858;8.530;2024-03-02T00:39:27;39.60;34.69;42.29;;
45651;Laerm;31365;48.858;8.530;2024-03-02T00:41:55;58.40;35.94;78.43;;
45651;Laerm;31365;48.858;8.530;2024-03-02T00:44:25;57.11;35.66;74.22;;
45651;Laerm;31365;48.858;8.530;2024-03-02T00:46:58;54.14;36.20;75.61;;
45651;Laerm;31365;48.858;8.530;2024-03-02T00:49:28;40.13;35.04;42.71;;
45651;Laerm;31365;48.858;8.530;2024-03-02T00:51:57;49.43;35.66;66.00;;
45651;Laerm;31365;48.858;8.530;2024-03-02T00:54:26;55.59;36.91;74.32;;
45651;Laerm;31365;48.858;8.530;2024-03-02T00:56:56;54.70;35.66;75.73;;
45651;Laerm;31365;48.858;8.530;2024-03-02T00:59:25;44.26;34.69;65.05;;
45651;Laerm;31365;48.858;8.530;2024-03-02T01:01:54;54.58;34.69;73.02;;
45651;Laerm;31365;48.858;8.530;2024-03-02T01:04:23;39.44;33.90;41.61;;
45651;Laerm;31365;48.858;8.530;2024-03-02T01:06:52;54.16;34.69;74.13;;
45651;Laerm;31365;48.858;8.530;2024-03-02T01:09:21;39.57;35.04;41.82;;
45651;Laerm;31365;48.858;8.530;2024-03-02T01:11:49;51.20;33.90;69.66;;
45651;Laerm;31365;48.858;8.530;2024-03-02T01:14:18;52.55;34.31;72.64;;
45651;Laerm;31365;48.858;8.530;2024-03-02T01:16:46;39.76;34.69;45.33;;
45651;Laerm;31365;48.858;8.530;2024-03-02T01:19:14;55.56;34.31;74.87;;
45651;Laerm;31365;48.858;8.530;2024-03-02T01:21:43;51.41;34.69;70.23;;
45651;Laerm;31365;48.858;8.530;2024-03-02T01:24:13;39.49;33.44;41.96;;
45651;Laerm;31365;48.858;8.530;2024-03-02T01:26:42;39.62;32.35;43.58;;
45651;Laerm;31365;48.858;8.530;2024-03-02T01:29:10;39.63;32.93;46.89;;
45651;Laerm;31365;48.858;8.530;2024-03-02T01:31:38;39.54;33.44;43.54;;
45651;Laerm;31365;48.858;8.530;2024-03-02T01:34:09;39.44;34.69;41.96;;
45651;Laerm;31365;48.858;8.530;2024-03-02T01:36:37;39.76;35.36;43.64;;
45651;Laerm;31365;48.858;8.530;2024-03-02T01:39:06;39.73;35.36;42.82;;
45651;Laerm;31365;48.858;8.530;2024-03-02T01:41:37;40.03;35.36;45.66;;
45651;Laerm;31365;48.858;8.530;2024-03-02T01:44:06;39.37;33.90;45.42;;
45651;Laerm;31365;48.858;8.530;2024-03-02T01:46:34;39.96;35.66;46.64;;
45651;Laerm;31365;48.858;8.530;2024-03-02T01:49:03;38.93;30.89;41.61;;
45651;Laerm;31365;48.858;8.530;2024-03-02T01:51:31;38.76;33.44;42.71;;
45651;Laerm;31365;48.858;8.530;2024-03-02T01:54:00;38.84;34.31;42.69;;
45651;Laerm;31365;48.858;8.530;2024-03-02T01:56:28;38.96;34.31;52.02;;
45651;Laerm;31365;48.858;8.530;2024-03-02T01:59:00;50.85;33.90;69.92;;
45651;Laerm;31365;48.858;8.530;2024-03-02T02:01:28;39.63;32.93;44.80;;
45651;Laerm;31365;48.858;8.530;2024-03-02T02:03:58;38.62;31.68;41.30;;
45651;Laerm;31365;48.858;8.530;2024-03-02T02:06:28;38.62;31.68;41.53;;
45651;Laerm;31365;48.858;8.530;2024-03-02T02:08:56;38.77;32.35;41.46;;
45651;Laerm;31365;48.858;8.530;2024-03-02T02:11:25;38.99;33.44;41.38;;
45651;Laerm;31365;48.858;8.530;2024-03-02T02:13:54;39.32;32.93;43.68;;
45651;Laerm;31365;48.858;8.530;2024-03-02T02:16:25;39.67;33.90;45.01;;
45651;Laerm;31365;48.858;8.530;2024-03-02T02:18:53;40.49;33.90;44.15;;
45651;Laerm;31365;48.858;8.530;2024-03-02T02:21:24;38.89;32.35;41.89;;
45651;Laerm;31365;48.858;8.530;2024-03-02T02:26:21;38.96;33.90;41.89;;
45651;Laerm;31365;48.858;8.530;2024-03-02T02:28:50;38.73;30.89;41.22;;
45651;Laerm;31365;48.858;8.530;2024-03-02T02:31:19;38.98;33.44;44.51;;
45651;Laerm;31365;48.858;8.530;2024-03-02T02:33:47;39.16;32.93;43.14;;
45651;Laerm;31365;48.858;8.530;2024-03-02T02:36:16;38.86;32.35;42.85;;
45651;Laerm;31365;48.858;8.530;2024-03-02T02:38:48;38.61;31.68;44.80;;
45651;Laerm;31365;48.858;8.530;2024-03-02T02:41:17;38.65;28.67;41.30;;
45651;Laerm;31365;48.858;8.530;2024-03-02T02:43:46;53.71;35.31;74.85;;
45651;Laerm;31365;48.858;8.530;2024-03-02T02:46:14;60.91;35.66;81.24;;
45651;Laerm;31365;48.858;8.530;2024-03-02T02:48:43;56.03;35.04;77.31;;
45651;Laerm;31365;48.858;8.530;2024-03-02T02:51:12;38.88;33.44;43.49;;
45651;Laerm;31365;48.858;8.530;2024-03-02T02:53:41;59.37;34.69;78.89;;
45651;Laerm;31365;48.858;8.530;2024-03-02T02:56:10;38.99;32.93;42.35;;
45651;Laerm;31365;48.858;8.530;2024-03-02T02:58:40;38.92;32.93;42.29;;
45651;Laerm;31365;48.858;8.530;2024-03-02T03:01:09;39.66;33.44;44.19;;
45651;Laerm;31365;48.858;8.530;2024-03-02T03:03:38;38.79;32.93;44.03;;
45651;Laerm;31365;48.858;8.530;2024-03-02T03:06:06;55.22;32.35;75.42;;
45651;Laerm;31365;48.858;8.530;2024-03-02T03:08:35;38.67;32.93;41.53;;
45651;Laerm;31365;48.858;8.530;2024-03-02T03:11:04;39.21;33.90;42.76;;
45651;Laerm;31365;48.858;8.530;2024-03-02T03:13:35;39.21;33.90;42.76;;
45651;Laerm;31365;48.858;8.530;2024-03-02T03:16:04;39.01;33.44;43.72;;
45651;Laerm;31365;48.858;8.530;2024-03-02T03:18:33;38.93;33.44;41.53;;
45651;Laerm;31365;48.858;8.530;2024-03-02T03:21:01;38.77;32.93;41.46;;
45651;Laerm;31365;48.858;8.530;2024-03-02T03:23:29;38.76;33.90;41.22;;
45651;Laerm;31365;48.858;8.530;2024-03-02T03:25:58;50.02;32.93;68.64;;
45651;Laerm;31365;48.858;8.530;2024-03-02T03:28:27;39.11;34.31;42.98;;
45651;Laerm;31365;48.858;8.530;2024-03-02T03:30:58;39.06;33.44;43.99;;
45651;Laerm;31365;48.858;8.530;2024-03-02T03:33:26;40.49;34.69;45.54;;
45651;Laerm;31365;48.858;8.530;2024-03-02T03:35:55;62.34;33.44;81.74;;
45651;Laerm;31365;48.858;8.530;2024-03-02T03:38:23;39.46;32.93;42.88;;
45651;Laerm;31365;48.858;8.530;2024-03-02T03:40:52;39.62;33.90;42.93;;
45651;Laerm;31365;48.858;8.530;2024-03-02T03:43:20;51.87;34.69;72.93;;
45651;Laerm;31365;48.858;8.530;2024-03-02T03:45:49;40.60;35.04;46.50;;
45651;Laerm;31365;48.858;8.530;2024-03-02T03:48:19;59.42;34.31;77.90;;
45651;Laerm;31365;48.858;8.530;2024-03-02T03:50:48;39.59;34.31;43.44;;
45651;Laerm;31365;48.858;8.530;2024-03-02T03:53:17;59.40;35.94;76.76;;
45651;Laerm;31365;48.858;8.530;2024-03-02T03:55:45;54.70;33.90;77.04;;
45651;Laerm;31365;48.858;8.530;2024-03-02T03:58:16;42.62;34.69;64.31;;
45651;Laerm;31365;48.858;8.530;2024-03-02T04:00:49;51.12;35.04;67.96;;
45651;Laerm;31365;48.858;8.530;2024-03-02T04:03:18;53.22;33.90;72.48;;
45651;Laerm;31365;48.858;8.530;2024-03-02T04:05:47;51.97;34.31;70.83;;
45651;Laerm;31365;48.858;8.530;2024-03-02T04:08:15;53.05;34.69;72.12;;
45651;Laerm;31365;48.858;8.530;2024-03-02T04:10:44;53.71;35.36;74.46;;
45651;Laerm;31365;48.858;8.530;2024-03-02T04:13:12;40.22;35.36;53.75;;
45651;Laerm;31365;48.858;8.530;2024-03-02T04:15:41;52.26;36.69;71.11;;
45651;Laerm;31365;48.858;8.530;2024-03-02T04:18:10;55.45;35.66;71.59;;
45651;Laerm;31365;48.858;8.530;2024-03-02T04:20:40;56.29;36.20;78.90;;
45651;Laerm;31365;48.858;8.530;2024-03-02T04:23:09;54.90;35.66;76.93;;
45651;Laerm;31365;48.858;8.530;2024-03-02T04:25:37;51.93;35.66;70.33;;
45651;Laerm;31365;48.858;8.530;2024-03-02T04:28:06;57.64;35.94;80.08;;
45651;Laerm;31365;48.858;8.530;2024-03-02T04:30:34;55.33;34.31;73.77;;
45651;Laerm;31365;48.858;8.530;2024-03-02T04:33:04;52.71;35.36;73.64;;
45651;Laerm;31365;48.858;8.530;2024-03-02T04:35:34;57.69;35.66;78.70;;
45651;Laerm;31365;48.858;8.530;2024-03-02T04:38:05;53.95;36.91;78.32;;
45651;Laerm;31365;48.858;8.530;2024-03-02T04:40:34;53.70;36.69;70.71;;
45651;Laerm;31365;48.858;8.530;2024-03-02T04:43:03;53.23;35.36;74.02;;
45651;Laerm;31365;48.858;8.530;2024-03-02T04:45:31;40.08;35.66;43.63;;
45651;Laerm;31365;48.858;8.530;2024-03-02T04:48:00;40.74;36.45;44.58;;
45651;Laerm;31365;48.858;8.530;2024-03-02T04:50:28;51.75;35.66;71.42;;
45651;Laerm;31365;48.858;8.530;2024-03-02T04:52:57;59.64;37.12;78.23;;
45651;Laerm;31365;48.858;8.530;2024-03-02T04:55:27;56.89;36.20;80.49;;
45651;Laerm;31365;48.858;8.530;2024-03-02T04:58:23;53.85;35.86;75.97;;
45651;Laerm;31365;48.858;8.530;2024-03-02T05:00:52;41.10;36.20;45.04;;
45651;Laerm;31365;48.858;8.530;2024-03-02T05:03:20;55.15;37.52;73.80;;
45651;Laerm;31365;48.858;8.530;2024-03-02T05:05:48;56.00;37.12;70.45;;
45651;Laerm;31365;48.858;8.530;2024-03-02T05:08:17;59.24;38.21;76.47;;
45651;Laerm;31365;48.858;8.530;2024-03-02T05:10:46;53.40;35.94;72.37;;
45651;Laerm;31365;48.858;8.530;2024-03-02T05:13:15;55.16;37.70;72.05;;
45651;Laerm;31365;48.858;8.530;2024-03-02T05:15:45;57.20;39.46;77.85;;
45651;Laerm;31365;48.858;8.530;2024-03-02T05:18:14;54.06;37.70;70.48;;
45651;Laerm;31365;48.858;8.530;2024-03-02T05:20:46;56.86;37.12;77.25;;
45651;Laerm;31365;48.858;8.530;2024-03-02T05:23:15;51.04;37.12;69.92;;
45651;Laerm;31365;48.858;8.530;2024-03-02T05:25:43;51.97;38.95;71.76;;
45651;Laerm;31365;48.858;8.530;2024-03-02T05:28:14;53.21;37.12;73.69;;
45651;Laerm;31365;48.858;8.530;2024-03-02T05:30:42;56.46;38.18;72.18;;
45651;Laerm;31365;48.858;8.530;2024-03-02T05:33:11;55.41;35.94;74.73;;
45651;Laerm;31365;48.858;8.530;2024-03-02T05:35:40;41.31;36.20;49.07;;
45651;Laerm;31365;48.858;8.530;2024-03-02T05:38:09;60.27;37.12;76.80;;
45651;Laerm;31365;48.858;8.530;2024-03-02T05:40:37;41.09;37.12;50.62;;
45651;Laerm;31365;48.858;8.530;2024-03-02T05:43:05;60.37;37.88;76.58;;
45651;Laerm;31365;48.858;8.530;2024-03-02T05:45:35;57.05;37.12;74.95;;
45651;Laerm;31365;48.858;8.530;2024-03-02T05:48:05;52.86;37.32;70.79;;
45651;Laerm;31365;48.858;8.530;2024-03-02T05:50:35;43.30;38.37;51.67;;
45651;Laerm;31365;48.858;8.530;2024-03-02T05:53:03;53.03;36.20;72.24;;
45651;Laerm;31365;48.858;8.530;2024-03-02T05:55:32;58.83;38.52;77.95;;
45651;Laerm;31365;48.858;8.530;2024-03-02T05:58:01;53.71;36.91;73.70;;
45651;Laerm;31365;48.858;8.530;2024-03-02T06:00:46;59.63;37.70;77.78;;
45651;Laerm;31365;48.858;8.530;2024-03-02T06:03:14;59.34;39.34;78.20;;
45651;Laerm;31365;48.858;8.530;2024-03-02T06:05:43;65.89;39.81;85.70;;
45651;Laerm;31365;48.858;8.530;2024-03-02T06:08:11;59.98;36.69;79.85;;
45651;Laerm;31365;48.858;8.530;2024-03-02T06:13:08;55.49;38.05;71.17;;
45651;Laerm;31365;48.858;8.530;2024-03-02T06:15:37;58.46;38.52;75.00;;
45651;Laerm;31365;48.858;8.530;2024-03-02T06:18:06;59.19;38.95;74.40;;
45651;Laerm;31365;48.858;8.530;2024-03-02T06:20:35;42.31;37.32;52.64;;
45651;Laerm;31365;48.858;8.530;2024-03-02T06:23:04;58.56;38.52;78.98;;
45651;Laerm;31365;48.858;8.530;2024-03-02T06:25:32;61.10;39.81;77.95;;
45651;Laerm;31365;48.858;8.530;2024-03-02T06:28:01;56.92;38.95;73.53;;
45651;Laerm;31365;48.858;8.530;2024-03-02T06:30:29;51.10;38.37;75.48;;
45651;Laerm;31365;48.858;8.530;2024-03-02T06:32:58;60.35;40.13;78.78;;
45651;Laerm;31365;48.858;8.530;2024-03-02T06:35:28;60.14;39.58;75.01;;
45651;Laerm;31365;48.858;8.530;2024-03-02T06:37:56;58.24;38.21;77.11;;
45651;Laerm;31365;48.858;8.530;2024-03-02T06:40:26;59.72;38.37;76.42;;
45651;Laerm;31365;48.858;8.530;2024-03-02T06:42:54;59.00;39.81;77.78;;
45651;Laerm;31365;48.858;8.530;2024-03-02T06:45:23;59.90;39.46;73.56;;
45651;Laerm;31365;48.858;8.530;2024-03-02T06:47:51;59.81;41.46;75.96;;
45651;Laerm;31365;48.858;8.530;2024-03-02T06:50:19;59.25;39.58;73.94;;
45651;Laerm;31365;48.858;8.530;2024-03-02T06:52:49;62.06;41.30;77.62;;
45651;Laerm;31365;48.858;8.530;2024-03-02T06:55:17;60.53;42.29;76.71;;
45651;Laerm;31365;48.858;8.530;2024-03-02T06:57:46;64.07;40.23;79.57;;
45651;Laerm;31365;48.858;8.530;2024-03-02T07:00:15;59.01;38.67;77.61;;
45651;Laerm;31365;48.858;8.530;2024-03-02T07:02:45;60.65;37.88;78.39;;
45651;Laerm;31365;48.858;8.530;2024-03-02T07:05:14;55.27;39.81;73.78;;
45651;Laerm;31365;48.858;8.530;2024-03-02T07:07:42;60.48;39.81;75.48;;
45651;Laerm;31365;48.858;8.530;2024-03-02T07:10:12;62.11;41.06;75.20;;
45651;Laerm;31365;48.858;8.530;2024-03-02T07:12:41;62.53;42.47;76.90;;
45651;Laerm;31365;48.858;8.530;2024-03-02T07:15:10;58.34;40.03;75.11;;
45651;Laerm;31365;48.858;8.530;2024-03-02T07:18:10;59.75;40.71;78.91;;
45651;Laerm;31365;48.858;8.530;2024-03-02T07:20:39;63.35;42.65;77.57;;
45651;Laerm;31365;48.858;8.530;2024-03-02T07:23:07;60.53;41.46;84.00;;
45651;Laerm;31365;48.858;8.530;2024-03-02T07:25:39;63.33;41.75;79.47;;
45651;Laerm;31365;48.858;8.530;2024-03-02T07:28:10;60.73;39.70;79.28;;
45651;Laerm;31365;48.858;8.530;2024-03-02T07:30:39;58.75;39.70;71.96;;
45651;Laerm;31365;48.858;8.530;2024-03-02T07:33:08;63.67;42.16;78.05;;
45651;Laerm;31365;48.858;8.530;2024-03-02T07:35:37;60.45;38.81;78.89;;
45651;Laerm;31365;48.858;8.530;2024-03-02T07:38:05;60.99;39.21;75.20;;
45651;Laerm;31365;48.858;8.530;2024-03-02T07:40:34;59.48;41.53;75.76;;
45651;Laerm;31365;48.858;8.530;2024-03-02T07:43:05;60.67;39.46;76.01;;
45651;Laerm;31365;48.858;8.530;2024-03-02T07:45:33;62.36;37.88;77.46;;
45651;Laerm;31365;48.858;8.530;2024-03-02T07:48:03;62.14;42.47;77.27;;
45651;Laerm;31365;48.858;8.530;2024-03-02T07:50:31;60.37;39.34;75.34;;
45651;Laerm;31365;48.858;8.530;2024-03-02T07:53:03;61.98;40.53;80.01;;
45651;Laerm;31365;48.858;8.530;2024-03-02T07:55:32;63.15;42.82;78.35;;
45651;Laerm;31365;48.858;8.530;2024-03-02T07:58:01;63.71;40.98;79.50;;
45651;Laerm;31365;48.858;8.530;2024-03-02T08:00:32;62.04;40.80;78.69;;
45651;Laerm;31365;48.858;8.530;2024-03-02T08:03:01;61.50;42.71;83.18;;
45651;Laerm;31365;48.858;8.530;2024-03-02T08:05:30;61.43;42.22;75.73;;
45651;Laerm;31365;48.858;8.530;2024-03-02T08:10:27;63.88;41.61;81.52;;
45651;Laerm;31365;48.858;8.530;2024-03-02T08:12:55;61.30;38.67;77.16;;
45651;Laerm;31365;48.858;8.530;2024-03-02T08:15:24;62.72;42.93;80.33;;
45651;Laerm;31365;48.858;8.530;2024-03-02T08:17:54;60.83;41.06;74.27;;
45651;Laerm;31365;48.858;8.530;2024-03-02T08:20:23;67.43;41.30;92.81;;
45651;Laerm;31365;48.858;8.530;2024-03-02T08:22:51;65.80;43.39;88.05;;
45651;Laerm;31365;48.858;8.530;2024-03-02T08:25:22;63.41;42.76;77.69;;
45651;Laerm;31365;48.858;8.530;2024-03-02T08:27:50;59.94;41.22;76.61;;
45651;Laerm;31365;48.858;8.530;2024-03-02T08:30:18;63.78;40.43;78.59;;
45651;Laerm;31365;48.858;8.530;2024-03-02T08:32:47;64.72;40.62;83.30;;
45651;Laerm;31365;48.858;8.530;2024-03-02T08:35:17;61.76;42.47;76.38;;
45651;Laerm;31365;48.858;8.530;2024-03-02T08:37:46;65.44;42.22;80.24;;
45651;Laerm;31365;48.858;8.530;2024-03-02T08:40:15;61.53;41.96;76.17;;
45651;Laerm;31365;48.858;8.530;2024-03-02T08:42:46;61.90;41.22;76.63;;
45651;Laerm;31365;48.858;8.530;2024-03-02T08:45:15;62.14;41.53;75.32;;
45651;Laerm;31365;48.858;8.530;2024-03-02T08:47:44;62.64;41.96;75.41;;
45651;Laerm;31365;48.858;8.530;2024-03-02T08:50:12;62.98;41.61;89.47;;
45651;Laerm;31365;48.858;8.530;2024-03-02T08:52:42;62.92;43.14;79.54;;
45651;Laerm;31365;48.858;8.530;2024-03-02T08:55:11;64.36;43.68;77.30;;
45651;Laerm;31365;48.858;8.530;2024-03-02T08:57:41;62.83;41.68;77.72;;
45651;Laerm;31365;48.858;8.530;2024-03-02T09:00:12;64.52;42.41;80.45;;
45651;Laerm;31365;48.858;8.530;2024-03-02T09:02:41;71.00;42.35;91.59;;
45651;Laerm;31365;48.858;8.530;2024-03-02T09:05:10;61.60;40.71;77.59;;
45651;Laerm;31365;48.858;8.530;2024-03-02T09:07:39;62.35;43.04;81.30;;
45651;Laerm;31365;48.858;8.530;2024-03-02T09:10:10;62.08;42.71;75.57;;
45651;Laerm;31365;48.858;8.530;2024-03-02T09:12:39;62.58;39.08;77.88;;
45651;Laerm;31365;48.858;8.530;2024-03-02T09:15:08;63.76;44.31;80.41;;
45651;Laerm;31365;48.858;8.530;2024-03-02T09:17:37;67.73;41.22;86.08;;
45651;Laerm;31365;48.858;8.530;2024-03-02T09:20:07;63.35;41.38;80.99;;
45651;Laerm;31365;48.858;8.530;2024-03-02T09:22:35;63.69;42.03;80.12;;
45651;Laerm;31365;48.858;8.530;2024-03-02T09:25:04;63.00;43.04;78.05;;
45651;Laerm;31365;48.858;8.530;2024-03-02T09:27:37;62.73;42.29;77.29;;
45651;Laerm;31365;48.858;8.530;2024-03-02T09:30:08;63.26;42.22;79.59;;
45651;Laerm;31365;48.858;8.530;2024-03-02T09:32:37;66.73;41.68;83.57;;
45651;Laerm;31365;48.858;8.530;2024-03-02T09:35:07;64.11;41.75;77.08;;
45651;Laerm;31365;48.858;8.530;2024-03-02T09:37:36;62.49;42.98;78.19;;
45651;Laerm;31365;48.858;8.530;2024-03-02T09:40:06;62.54;42.65;76.17;;
45651;Laerm;31365;48.858;8.530;2024-03-02T09:42:36;61.00;41.96;73.66;;
45651;Laerm;31365;48.858;8.530;2024-03-02T09:45:06;61.95;42.03;76.43;;
45651;Laerm;31365;48.858;8.530;2024-03-02T09:47:35;61.95;42.03;76.43;;
45651;Laerm;31365;48.858;8.530;2024-03-02T09:50:04;64.48;41.30;82.99;;
45651;Laerm;31365;48.858;8.530;2024-03-02T09:52:33;63.74;42.93;78.79;;
45651;Laerm;31365;48.858;8.530;2024-03-02T09:55:02;63.42;45.07;75.64;;
45651;Laerm;31365;48.858;8.530;2024-03-02T09:57:32;67.36;42.82;85.36;;
45651;Laerm;31365;48.858;8.530;2024-03-02T10:00:04;62.84;42.98;81.69;;
45651;Laerm;31365;48.858;8.530;2024-03-02T10:02:32;59.77;42.35;73.35;;
45651;Laerm;31365;48.858;8.530;2024-03-02T10:05:01;63.33;41.46;79.20;;
45651;Laerm;31365;48.858;8.530;2024-03-02T10:07:31;59.37;39.58;74.04;;
45651;Laerm;31365;48.858;8.530;2024-03-02T10:10:13;64.99;40.13;80.46;;
45651;Laerm;31365;48.858;8.530;2024-03-02T10:12:42;63.66;42.65;80.65;;
45651;Laerm;31365;48.858;8.530;2024-03-02T10:15:12;60.98;40.53;76.64;;
45651;Laerm;31365;48.858;8.530;2024-03-02T10:17:40;60.05;40.71;77.84;;
45651;Laerm;31365;48.858;8.530;2024-03-02T10:20:24;59.59;39.92;82.35;;
45651;Laerm;31365;48.858;8.530;2024-03-02T10:22:53;59.94;40.98;76.28;;
45651;Laerm;31365;48.858;8.530;2024-03-02T10:25:32;62.43;43.19;75.71;;
45651;Laerm;31365;48.858;8.530;2024-03-02T10:28:05;62.88;41.89;80.65;;
45651;Laerm;31365;48.858;8.530;2024-03-02T10:30:35;62.16;43.39;75.80;;
45651;Laerm;31365;48.858;8.530;2024-03-02T10:33:06;61.72;39.58;76.17;;
45651;Laerm;31365;48.858;8.530;2024-03-02T10:35:34;63.70;43.19;79.11;;
45651;Laerm;31365;48.858;8.530;2024-03-02T10:38:05;62.22;42.47;76.74;;
45651;Laerm;31365;48.858;8.530;2024-03-02T10:40:34;60.02;41.75;72.62;;
45651;Laerm;31365;48.858;8.530;2024-03-02T10:43:04;62.96;41.89;77.44;;
45651;Laerm;31365;48.858;8.530;2024-03-02T10:45:35;61.81;42.09;76.68;;
45651;Laerm;31365;48.858;8.530;2024-03-02T10:48:05;59.97;39.70;75.65;;
45651;Laerm;31365;48.858;8.530;2024-03-02T10:50:33;63.89;42.76;81.61;;
45651;Laerm;31365;48.858;8.530;2024-03-02T10:53:03;62.76;39.21;86.04;;
45651;Laerm;31365;48.858;8.530;2024-03-02T10:55:33;59.22;39.46;74.40;;
45651;Laerm;31365;48.858;8.530;2024-03-02T10:58:04;62.45;39.08;80.63;;
45651;Laerm;31365;48.858;8.530;2024-03-02T11:00:38;63.18;41.68;76.16;;
45651;Laerm;31365;48.858;8.530;2024-03-02T11:03:08;63.11;39.70;75.68;;
45651;Laerm;31365;48.858;8.530;2024-03-02T11:05:44;62.81;41.30;77.16;;
45651;Laerm;31365;48.858;8.530;2024-03-02T11:08:17;61.57;42.29;79.60;;
45651;Laerm;31365;48.858;8.530;2024-03-02T11:10:51;60.98;41.38;76.02;;
45651;Laerm;31365;48.858;8.530;2024-03-02T11:13:31;61.35;41.61;73.82;;
45651;Laerm;31365;48.858;8.530;2024-03-02T11:16:07;63.67;42.03;76.92;;
45651;Laerm;31365;48.858;8.530;2024-03-02T11:18:39;61.43;41.89;76.28;;
45651;Laerm;31365;48.858;8.530;2024-03-02T11:21:09;59.31;39.81;72.33;;
45651;Laerm;31365;48.858;8.530;2024-03-02T11:23:38;62.80;42.22;77.44;;
45651;Laerm;31365;48.858;8.530;2024-03-02T11:26:20;59.84;42.09;75.31;;
45651;Laerm;31365;48.858;8.530;2024-03-02T11:28:49;58.93;40.71;73.80;;
45651;Laerm;31365;48.858;8.530;2024-03-02T11:31:19;62.96;39.81;75.42;;
45651;Laerm;31365;48.858;8.530;2024-03-02T11:33:48;61.83;43.77;75.64;;
45651;Laerm;31365;48.858;8.530;2024-03-02T11:36:17;57.78;39.70;73.54;;
45651;Laerm;31365;48.858;8.530;2024-03-02T11:38:45;59.42;39.70;73.57;;
45651;Laerm;31365;48.858;8.530;2024-03-02T11:41:15;61.78;40.80;77.79;;
45651;Laerm;31365;48.858;8.530;2024-03-02T11:43:45;61.17;41.30;77.69;;
45651;Laerm;31365;48.858;8.530;2024-03-02T11:46:15;61.33;38.52;76.17;;
45651;Laerm;31365;48.858;8.530;2024-03-02T11:48:46;60.41;39.34;75.56;;
45651;Laerm;31365;48.858;8.530;2024-03-02T11:51:16;63.25;43.39;84.00;;
45651;Laerm;31365;48.858;8.530;2024-03-02T11:53:46;63.93;40.89;81.10;;
45651;Laerm;31365;48.858;8.530;2024-03-02T11:56:16;70.17;39.92;93.32;;
45651;Laerm;31365;48.858;8.530;2024-03-02T11:58:46;62.13;41.96;78.71;;
45651;Laerm;31365;48.858;8.530;2024-03-02T12:01:16;60.62;40.80;77.17;;
45651;Laerm;31365;48.858;8.530;2024-03-02T12:03:46;58.90;40.03;71.88;;
45651;Laerm;31365;48.858;8.530;2024-03-02T12:06:16;62.77;41.96;76.97;;
45651;Laerm;31365;48.858;8.530;2024-03-02T12:08:52;61.97;42.22;80.80;;
45651;Laerm;31365;48.858;8.530;2024-03-02T12:11:20;61.84;42.13;78.08;;
45651;Laerm;31365;48.858;8.530;2024-03-02T12:13:53;66.92;41.89;85.68;;
45651;Laerm;31365;48.858;8.530;2024-03-02T12:16:24;61.16;38.37;77.74;;
45651;Laerm;31365;48.858;8.530;2024-03-02T12:18:56;59.64;37.12;76.43;;
45651;Laerm;31365;48.858;8.530;2024-03-02T12:21:26;62.76;42.22;80.14;;
45651;Laerm;31365;48.858;8.530;2024-03-02T12:23:54;63.05;41.53;82.88;;
45651;Laerm;31365;48.858;8.530;2024-03-02T12:26:24;65.43;39.34;82.37;;
45651;Laerm;31365;48.858;8.530;2024-03-02T12:28:53;68.90;42.22;90.39;;
45651;Laerm;31365;48.858;8.530;2024-03-02T12:31:22;69.14;39.70;93.14;;
45651;Laerm;31365;48.858;8.530;2024-03-02T12:33:50;61.24;43.09;77.57;;
45651;Laerm;31365;48.858;8.530;2024-03-02T12:36:21;62.00;41.82;77.15;;
45651;Laerm;31365;48.858;8.530;2024-03-02T12:38:53;62.61;40.33;82.07;;
45651;Laerm;31365;48.858;8.530;2024-03-02T12:41:22;62.76;38.81;83.01;;
45651;Laerm;31365;48.858;8.530;2024-03-02T12:43:51;60.81;39.08;76.01;;
45651;Laerm;31365;48.858;8.530;2024-03-02T12:46:21;60.66;36.91;78.33;;
45651;Laerm;31365;48.858;8.530;2024-03-02T12:48:51;70.98;41.46;91.42;;
45651;Laerm;31365;48.858;8.530;2024-03-02T12:51:21;59.52;39.46;74.98;;
45651;Laerm;31365;48.858;8.530;2024-03-02T12:53:54;59.51;39.92;73.87;;
45651;Laerm;31365;48.858;8.530;2024-03-02T12:56:23;60.24;36.45;73.55;;
45651;Laerm;31365;48.858;8.530;2024-03-02T12:58:53;61.17;38.81;79.08;;
45651;Laerm;31365;48.858;8.530;2024-03-02T13:01:22;68.02;41.82;86.19;;
45651;Laerm;31365;48.858;8.530;2024-03-02T13:03:53;62.12;39.92;75.81;;
45651;Laerm;31365;48.858;8.530;2024-03-02T13:06:25;59.96;40.53;74.81;;
45651;Laerm;31365;48.858;8.530;2024-03-02T13:08:56;58.49;40.03;72.38;;
45651;Laerm;31365;48.858;8.530;2024-03-02T13:11:25;59.45;41.38;70.56;;
45651;Laerm;31365;48.858;8.530;2024-03-02T13:13:54;61.53;41.61;78.12;;
45651;Laerm;31365;48.858;8.530;2024-03-02T13:16:23;60.94;43.94;76.69;;
45651;Laerm;31365;48.858;8.530;2024-03-02T13:19:00;61.73;45.77;76.23;;
45651;Laerm;31365;48.858;8.530;2024-03-02T13:21:31;58.69;42.41;74.27;;
45651;Laerm;31365;48.858;8.530;2024-03-02T13:24:00;59.97;41.30;76.19;;
45651;Laerm;31365;48.858;8.530;2024-03-02T13:26:29;59.16;39.58;73.49;;
45651;Laerm;31365;48.858;8.530;2024-03-02T13:28:58;58.93;39.21;72.95;;
45651;Laerm;31365;48.858;8.530;2024-03-02T13:31:26;61.87;38.37;78.48;;
45651;Laerm;31365;48.858;8.530;2024-03-02T13:33:54;57.79;37.52;74.47;;
45651;Laerm;31365;48.858;8.530;2024-03-02T13:36:23;62.09;40.71;77.85;;
45651;Laerm;31365;48.858;8.530;2024-03-02T13:38:53;61.32;41.14;73.65;;
45651;Laerm;31365;48.858;8.530;2024-03-02T13:41:22;64.59;41.68;86.14;;
45651;Laerm;31365;48.858;8.530;2024-03-02T13:43:50;61.52;40.36;76.91;;
45651;Laerm;31365;48.858;8.530;2024-03-02T13:46:20;61.54;42.71;75.59;;
45651;Laerm;31365;48.858;8.530;2024-03-02T13:48:49;67.05;42.29;88.87;;
45651;Laerm;31365;48.858;8.530;2024-03-02T13:51:18;67.05;42.29;88.87;;
45651;Laerm;31365;48.858;8.530;2024-03-02T13:53:46;60.17;41.46;76.88;;
45651;Laerm;31365;48.858;8.530;2024-03-02T13:56:16;63.69;39.46;83.74;;
45651;Laerm;31365;48.858;8.530;2024-03-02T13:58:45;60.85;41.46;75.45;;
45651;Laerm;31365;48.858;8.530;2024-03-02T14:03:43;60.18;43.04;76.09;;
45651;Laerm;31365;48.858;8.530;2024-03-02T14:06:12;66.58;42.53;87.55;;
45651;Laerm;31365;48.858;8.530;2024-03-02T14:08:41;64.91;49.20;79.52;;